createdAt,value
2022-09-25T00:00:59.053Z,13.26
2022-09-25T00:03:27.279Z,13.23
2022-09-25T00:06:00.110Z,13.19
2022-09-25T00:08:26.608Z,13.17
2022-09-25T00:10:53.057Z,13.16
2022-09-25T00:13:20.490Z,13.19
2022-09-25T00:15:56.793Z,13.21
2022-09-25T00:18:42.360Z,13.20
2022-09-25T00:21:11.576Z,13.21
2022-09-25T00:23:38.269Z,13.20
2022-09-25T00:26:06.014Z,13.18
2022-09-25T00:28:32.706Z,13.19
2022-09-25T00:30:59.961Z,13.20
2022-09-25T00:33:26.617Z,13.21
2022-09-25T00:35:53.137Z,13.22
2022-09-25T00:38:19.578Z,13.22
2022-09-25T00:40:46.173Z,13.21
2022-09-25T00:43:33.211Z,13.20
2022-09-25T00:46:00.612Z,13.22
2022-09-25T00:48:27.505Z,13.22
2022-09-25T00:50:56.705Z,13.20
2022-09-25T00:53:32.350Z,13.19
2022-09-25T00:56:00.218Z,13.16
2022-09-25T00:58:27.878Z,13.13
2022-09-25T01:00:54.421Z,13.12
2022-09-25T01:03:21.716Z,13.09
2022-09-25T01:05:49.440Z,13.04
2022-09-25T01:08:19.154Z,13.02
2022-09-25T01:10:45.666Z,12.99
2022-09-25T01:13:13.409Z,12.98
2022-09-25T01:15:39.841Z,12.98
2022-09-25T01:18:06.245Z,12.94
2022-09-25T01:20:51.163Z,12.97
2022-09-25T01:23:25.384Z,13.00
2022-09-25T01:26:04.322Z,12.98
2022-09-25T01:28:36.653Z,12.89
2022-09-25T01:31:07.111Z,12.83
2022-09-25T01:33:55.262Z,12.76
2022-09-25T01:36:25.903Z,12.71
2022-09-25T01:39:12.619Z,12.69
2022-09-25T01:41:47.228Z,12.68
2022-09-25T01:44:33.632Z,12.66
2022-09-25T01:47:03.516Z,12.65
2022-09-25T01:49:33.014Z,12.60
2022-09-25T01:52:01.772Z,12.61
2022-09-25T01:54:30.934Z,12.59
2022-09-25T01:57:05.567Z,12.56
2022-09-25T01:59:51.643Z,12.54
2022-09-25T02:02:21.274Z,12.46
2022-09-25T02:04:56.303Z,12.45
2022-09-25T02:07:26.965Z,12.42
2022-09-25T02:09:56.389Z,12.38
2022-09-25T02:12:34.381Z,12.35
2022-09-25T02:15:03.416Z,12.31
2022-09-25T02:17:52.615Z,12.27
2022-09-25T02:20:33.181Z,12.26
2022-09-25T02:23:06.961Z,12.26
2022-09-25T02:25:37.615Z,12.26
2022-09-25T02:28:04.226Z,12.23
2022-09-25T02:30:30.760Z,12.19
2022-09-25T02:32:58.173Z,12.18
2022-09-25T02:35:26.056Z,12.18
2022-09-25T02:37:54.523Z,12.16
2022-09-25T02:40:25.090Z,12.16
2022-09-25T02:42:59.952Z,12.16
2022-09-25T02:45:35.324Z,12.15
2022-09-25T02:48:12.924Z,12.13
2022-09-25T02:50:46.054Z,12.13
2022-09-25T02:53:12.470Z,12.14
2022-09-25T02:55:45.936Z,12.12
2022-09-25T02:58:30.854Z,12.13
2022-09-25T03:00:57.583Z,12.14
2022-09-25T03:03:26.003Z,12.16
2022-09-25T03:05:54.813Z,12.18
2022-09-25T03:08:37.891Z,12.16
2022-09-25T03:11:05.694Z,12.16
2022-09-25T03:13:34.774Z,12.13
2022-09-25T03:16:21.044Z,12.12
2022-09-25T03:18:48.044Z,12.07
2022-09-25T03:21:14.549Z,12.04
2022-09-25T03:23:41.087Z,11.99
2022-09-25T03:26:07.834Z,11.99
2022-09-25T03:28:34.676Z,12.00
2022-09-25T03:31:08.372Z,11.98
2022-09-25T03:33:36.247Z,11.95
2022-09-25T03:36:04.314Z,11.93
2022-09-25T03:38:30.777Z,11.90
2022-09-25T03:40:57.261Z,11.88
2022-09-25T03:43:24.043Z,11.85
2022-09-25T03:45:50.550Z,11.84
2022-09-25T03:48:17.814Z,11.83
2022-09-25T03:50:44.633Z,11.85
2022-09-25T03:53:11.087Z,11.90
2022-09-25T03:55:37.585Z,11.96
2022-09-25T03:58:04.031Z,11.96
2022-09-25T04:00:30.461Z,11.97
2022-09-25T04:02:58.886Z,11.97
2022-09-25T04:05:25.402Z,11.99
2022-09-25T04:07:52.862Z,12.00
2022-09-25T04:10:19.300Z,12.00
2022-09-25T04:12:45.759Z,11.99
2022-09-25T04:15:12.161Z,12.00
2022-09-25T04:17:38.612Z,12.02
2022-09-25T04:20:05.211Z,12.04
2022-09-25T04:22:31.645Z,12.05
2022-09-25T04:24:59.811Z,12.07
2022-09-25T04:27:27.300Z,12.12
2022-09-25T04:29:53.751Z,12.16
2022-09-25T04:32:38.934Z,12.21
2022-09-25T04:35:05.450Z,12.27
2022-09-25T04:37:31.886Z,12.30
2022-09-25T04:39:59.819Z,12.33
2022-09-25T04:42:26.326Z,12.36
2022-09-25T04:44:53.646Z,12.37
2022-09-25T04:47:23.678Z,12.38
2022-09-25T04:49:51.199Z,12.39
2022-09-25T04:52:18.720Z,12.41
2022-09-25T04:54:45.185Z,12.44
2022-09-25T04:57:32.718Z,12.46
2022-09-25T05:00:02.776Z,12.46
2022-09-25T05:02:29.323Z,12.49
2022-09-25T05:04:55.824Z,12.49
2022-09-25T05:07:22.395Z,12.50
2022-09-25T05:09:48.860Z,12.53
2022-09-25T05:12:15.824Z,12.54
2022-09-25T05:14:42.698Z,12.54
2022-09-25T05:17:11.367Z,12.57
2022-09-25T05:19:38.593Z,12.58
2022-09-25T05:22:05.357Z,12.56
2022-09-25T05:24:31.898Z,12.57
2022-09-25T05:26:58.932Z,12.61
2022-09-25T05:29:25.497Z,12.66
2022-09-25T05:31:51.982Z,12.71
2022-09-25T05:34:18.482Z,12.80
2022-09-25T05:36:44.949Z,12.85
2022-09-25T05:39:14.354Z,12.90
2022-09-25T05:41:41.512Z,12.94
2022-09-25T05:44:09.888Z,12.98
2022-09-25T05:46:36.987Z,13.00
2022-09-25T05:49:04.089Z,13.02
2022-09-25T05:51:30.901Z,13.11
2022-09-25T05:53:57.549Z,13.17
2022-09-25T05:56:24.859Z,13.26
2022-09-25T05:58:52.247Z,13.33
2022-09-25T06:01:18.971Z,13.40
2022-09-25T06:03:45.648Z,13.43
2022-09-25T06:06:12.476Z,13.43
2022-09-25T06:08:39.258Z,13.44
2022-09-25T06:11:06.192Z,13.42
2022-09-25T06:13:35.781Z,13.44
2022-09-25T06:16:05.699Z,13.52
2022-09-25T06:18:34.064Z,13.60
2022-09-25T06:21:03.845Z,13.67
2022-09-25T06:23:31.583Z,13.79
2022-09-25T06:26:02.002Z,13.95
2022-09-25T06:28:30.990Z,14.11
2022-09-25T06:31:02.279Z,14.34
2022-09-25T06:33:29.244Z,14.68
2022-09-25T06:35:55.705Z,15.11
2022-09-25T06:38:22.183Z,15.50
2022-09-25T06:40:48.688Z,15.94
2022-09-25T06:43:16.324Z,16.16
2022-09-25T06:45:44.672Z,16.51
2022-09-25T06:48:23.407Z,16.82
2022-09-25T06:50:53.883Z,16.79
2022-09-25T06:53:21.275Z,16.62
2022-09-25T06:55:48.288Z,16.72
2022-09-25T06:58:16.164Z,16.74
2022-09-25T07:00:46.180Z,16.76
2022-09-25T07:03:31.079Z,16.94
2022-09-25T07:05:59.521Z,17.22
2022-09-25T07:08:26.216Z,17.32
2022-09-25T07:10:54.080Z,17.46
2022-09-25T07:13:24.621Z,17.58
2022-09-25T07:15:54.993Z,17.59
2022-09-25T07:18:22.107Z,17.84
2022-09-25T07:20:49.338Z,18.28
2022-09-25T07:23:17.043Z,18.44
2022-09-25T07:25:46.582Z,18.74
2022-09-25T07:28:14.527Z,18.45
2022-09-25T07:30:41.215Z,18.56
2022-09-25T07:33:07.998Z,18.73
2022-09-25T07:35:34.995Z,19.03
2022-09-25T07:38:01.500Z,19.15
2022-09-25T07:40:28.926Z,19.62
2022-09-25T07:43:00.170Z,19.76
2022-09-25T07:45:26.822Z,19.80
2022-09-25T07:47:57.029Z,20.22
2022-09-25T07:50:23.769Z,20.08
2022-09-25T07:52:50.326Z,20.10
2022-09-25T07:55:18.332Z,20.19
2022-09-25T07:57:44.924Z,20.04
2022-09-25T08:00:11.816Z,20.09
2022-09-25T08:02:38.574Z,20.03
2022-09-25T08:05:05.276Z,19.45
2022-09-25T08:07:31.724Z,19.61
2022-09-25T08:09:58.171Z,19.90
2022-09-25T08:12:25.276Z,20.15
2022-09-25T08:14:52.156Z,20.51
2022-09-25T08:17:19.657Z,20.29
2022-09-25T08:19:46.288Z,20.24
2022-09-25T08:22:12.738Z,20.63
2022-09-25T08:24:39.423Z,20.96
2022-09-25T08:27:07.708Z,21.24
2022-09-25T08:29:34.354Z,21.36
2022-09-25T08:32:01.608Z,21.51
2022-09-25T08:34:40.561Z,21.39
2022-09-25T08:37:08.375Z,21.69
2022-09-25T08:39:34.800Z,21.57
2022-09-25T08:42:02.185Z,21.48
2022-09-25T08:44:30.934Z,21.30
2022-09-25T08:47:19.886Z,21.63
2022-09-25T08:49:49.235Z,21.86
2022-09-25T08:52:17.572Z,21.80
2022-09-25T08:54:45.736Z,22.07
2022-09-25T08:57:27.553Z,22.34
2022-09-25T09:00:01.400Z,21.89
2022-09-25T09:02:47.780Z,22.97
2022-09-25T09:05:17.490Z,23.77
2022-09-25T09:07:46.755Z,24.57
2022-09-25T09:10:19.134Z,24.65
2022-09-25T09:12:47.967Z,24.82
2022-09-25T09:15:23.422Z,23.09
2022-09-25T09:17:49.871Z,22.80
2022-09-25T09:20:18.691Z,23.40
2022-09-25T09:22:47.648Z,23.25
2022-09-25T09:25:38.535Z,23.42
2022-09-25T09:28:17.029Z,23.78
2022-09-25T09:30:43.507Z,23.91
2022-09-25T09:33:19.143Z,24.88
2022-09-25T09:36:05.357Z,25.04
2022-09-25T09:38:42.071Z,24.46
2022-09-25T09:41:08.545Z,25.26
2022-09-25T09:43:37.467Z,26.23
2022-09-25T09:46:03.956Z,26.58
2022-09-25T09:48:33.476Z,26.36
2022-09-25T09:51:06.259Z,26.49
2022-09-25T09:53:42.838Z,26.14
2022-09-25T09:56:12.342Z,25.62
2022-09-25T09:58:50.785Z,25.53
2022-09-25T10:01:40.119Z,25.49
2022-09-25T10:04:15.045Z,25.77
2022-09-25T10:06:53.953Z,26.01
2022-09-25T10:09:20.585Z,25.84
2022-09-25T10:11:49.561Z,24.75
2022-09-25T10:14:21.083Z,24.96
2022-09-25T10:16:52.568Z,24.65
2022-09-25T10:19:20.921Z,25.54
2022-09-25T10:21:50.006Z,25.00
2022-09-25T10:24:35.827Z,24.12
2022-09-25T10:27:22.481Z,23.68
2022-09-25T10:30:00.925Z,23.72
2022-09-25T10:32:27.432Z,23.66
2022-09-25T10:34:53.932Z,23.24
2022-09-25T10:37:21.730Z,23.36
2022-09-25T10:40:22.514Z,23.46
2022-09-25T10:42:49.050Z,22.84
2022-09-25T10:45:22.502Z,23.13
2022-09-25T10:48:08.699Z,22.95
2022-09-25T10:50:37.037Z,23.07
2022-09-25T10:53:04.947Z,22.98
2022-09-25T10:55:32.720Z,22.65
2022-09-25T10:57:59.160Z,22.74
2022-09-25T11:00:26.820Z,22.87
2022-09-25T11:03:01.991Z,23.21
2022-09-25T11:05:35.921Z,23.20
2022-09-25T11:08:06.822Z,23.00
2022-09-25T11:10:53.127Z,23.06
2022-09-25T11:13:27.989Z,22.58
2022-09-25T11:15:59.423Z,22.38
2022-09-25T11:18:31.861Z,22.44
2022-09-25T11:21:02.979Z,22.43
2022-09-25T11:23:47.894Z,22.25
2022-09-25T11:26:20.645Z,22.34
2022-09-25T11:28:52.202Z,22.29
2022-09-25T11:31:37.827Z,22.21
2022-09-25T11:34:14.364Z,21.98
2022-09-25T11:36:59.542Z,21.93
2022-09-25T11:39:52.406Z,22.06
2022-09-25T11:42:25.389Z,22.14
2022-09-25T11:44:57.955Z,22.32
2022-09-25T11:47:29.127Z,22.34
2022-09-25T11:50:12.104Z,22.42
2022-09-25T11:52:42.992Z,22.48
2022-09-25T11:55:12.466Z,22.60
2022-09-25T11:57:42.491Z,22.31
2022-09-25T12:00:21.105Z,22.17
2022-09-25T12:03:07.423Z,22.12
2022-09-25T12:05:52.745Z,22.04
2022-09-25T12:08:24.365Z,22.00
2022-09-25T12:11:03.809Z,22.01
2022-09-25T12:13:31.907Z,21.87
2022-09-25T12:15:59.329Z,21.72
2022-09-25T12:18:34.258Z,21.74
2022-09-25T12:21:09.931Z,21.61
2022-09-25T12:23:47.809Z,21.55
2022-09-25T12:26:32.831Z,21.30
2022-09-25T12:29:06.158Z,21.09
2022-09-25T12:31:32.666Z,21.18
2022-09-25T12:34:08.378Z,21.16
2022-09-25T12:36:38.959Z,21.24
2022-09-25T12:39:09.042Z,21.30
2022-09-25T12:41:42.506Z,21.42
2022-09-25T12:44:11.757Z,21.51
2022-09-25T12:46:44.599Z,21.45
2022-09-25T12:49:20.439Z,21.43
2022-09-25T12:51:48.252Z,21.44
2022-09-25T12:54:17.701Z,21.50
2022-09-25T12:56:58.183Z,21.47
2022-09-25T12:59:30.178Z,21.57
2022-09-25T13:02:11.984Z,21.52
2022-09-25T13:04:47.477Z,21.57
2022-09-25T13:07:19.106Z,21.61
2022-09-25T13:09:47.195Z,21.61
2022-09-25T13:12:17.009Z,21.47
2022-09-25T13:14:52.243Z,21.47
2022-09-25T13:17:18.809Z,21.43
2022-09-25T13:19:45.244Z,21.42
2022-09-25T13:22:20.813Z,21.36
2022-09-25T13:24:52.599Z,21.17
2022-09-25T13:27:22.525Z,20.99
2022-09-25T13:29:54.452Z,20.95
2022-09-25T13:32:25.322Z,20.92
2022-09-25T13:34:54.133Z,20.88
2022-09-25T13:37:24.023Z,20.80
2022-09-25T13:40:09.269Z,20.73
2022-09-25T13:42:45.513Z,20.71
2022-09-25T13:45:27.821Z,20.69
2022-09-25T13:47:54.771Z,20.63
2022-09-25T13:50:34.773Z,20.58
2022-09-25T13:53:20.729Z,20.54
2022-09-25T13:55:49.965Z,20.47
2022-09-25T13:58:24.016Z,20.41
2022-09-25T14:00:55.402Z,20.36
2022-09-25T14:03:47.172Z,20.26
2022-09-25T14:06:19.535Z,20.20
2022-09-25T14:08:47.122Z,20.17
2022-09-25T14:11:19.248Z,20.14
2022-09-25T14:13:48.266Z,20.11
2022-09-25T14:16:24.770Z,20.07
2022-09-25T14:18:55.184Z,20.08
2022-09-25T14:21:22.756Z,20.07
2022-09-25T14:23:53.856Z,20.06
2022-09-25T14:26:27.845Z,20.07
2022-09-25T14:28:55.786Z,20.09
2022-09-25T14:31:38.666Z,20.05
2022-09-25T14:34:17.507Z,20.04
2022-09-25T14:36:43.923Z,19.99
2022-09-25T14:39:19.341Z,19.95
2022-09-25T14:42:03.144Z,19.89
2022-09-25T14:44:32.592Z,19.82
2022-09-25T14:46:59.186Z,19.85
2022-09-25T14:49:30.898Z,19.81
2022-09-25T14:52:00.408Z,19.74
2022-09-25T14:54:31.085Z,19.71
2022-09-25T14:56:58.510Z,19.68
2022-09-25T14:59:33.864Z,19.65
2022-09-25T15:02:02.941Z,19.64
2022-09-25T15:04:33.706Z,19.60
2022-09-25T15:07:02.183Z,19.56
2022-09-25T15:09:37.153Z,19.55
2022-09-25T15:12:15.606Z,19.52
2022-09-25T15:14:56.889Z,19.48
2022-09-25T15:17:23.729Z,19.46
2022-09-25T15:19:50.227Z,19.45
2022-09-25T15:22:19.420Z,19.41
2022-09-25T15:24:48.358Z,19.40
2022-09-25T15:27:17.092Z,19.37
2022-09-25T15:29:45.231Z,19.33
2022-09-25T15:32:23.168Z,19.31
2022-09-25T15:34:49.614Z,19.28
2022-09-25T15:37:26.296Z,19.27
2022-09-25T15:39:53.199Z,19.24
2022-09-25T15:42:20.051Z,19.20
2022-09-25T15:44:47.078Z,19.18
2022-09-25T15:47:39.525Z,19.16
2022-09-25T15:50:14.138Z,19.11
2022-09-25T15:52:40.618Z,19.10
2022-09-25T15:55:11.098Z,19.10
2022-09-25T15:57:37.571Z,19.08
2022-09-25T16:00:27.940Z,19.06
2022-09-25T16:03:22.831Z,19.02
2022-09-25T16:05:49.846Z,19.02
2022-09-25T16:08:25.654Z,18.99
2022-09-25T16:11:10.635Z,18.97
2022-09-25T16:13:39.844Z,18.96
2022-09-25T16:16:16.614Z,18.95
2022-09-25T16:18:43.506Z,18.94
2022-09-25T16:21:15.597Z,18.91
2022-09-25T16:23:43.093Z,18.90
2022-09-25T16:26:22.289Z,18.87
2022-09-25T16:29:09.024Z,18.85
2022-09-25T16:31:37.168Z,18.82
2022-09-25T16:34:04.710Z,18.79
2022-09-25T16:36:42.917Z,18.79
2022-09-25T16:39:12.939Z,18.76
2022-09-25T16:41:40.665Z,18.75
2022-09-25T16:44:18.980Z,18.76
2022-09-25T16:46:52.222Z,18.81
2022-09-25T16:49:19.999Z,18.80
2022-09-25T16:51:48.210Z,18.80
2022-09-25T16:54:15.929Z,18.82
2022-09-25T16:56:43.392Z,18.81
2022-09-25T16:59:16.374Z,18.90
2022-09-25T17:01:43.207Z,18.91
2022-09-25T17:04:11.317Z,18.93
2022-09-25T17:06:40.835Z,18.91
2022-09-25T17:09:12.292Z,18.80
2022-09-25T17:11:39.922Z,18.75
2022-09-25T17:14:09.599Z,18.74
2022-09-25T17:16:36.195Z,18.77
2022-09-25T17:19:02.695Z,18.78
2022-09-25T17:21:29.263Z,18.77
2022-09-25T17:23:55.681Z,18.75
2022-09-25T17:26:23.546Z,18.75
2022-09-25T17:28:50.793Z,18.95
2022-09-25T17:31:20.282Z,18.94
2022-09-25T17:33:49.937Z,19.04
2022-09-25T17:36:16.740Z,19.02
2022-09-25T17:38:43.202Z,18.99
2022-09-25T17:41:20.876Z,19.00
2022-09-25T17:43:47.947Z,18.96
2022-09-25T17:46:19.211Z,18.94
2022-09-25T17:48:50.191Z,18.96
2022-09-25T17:51:23.932Z,18.95
2022-09-25T17:53:50.643Z,18.93
2022-09-25T17:56:17.122Z,18.91
2022-09-25T17:58:44.562Z,18.91
2022-09-25T18:01:18.155Z,18.89
2022-09-25T18:03:47.744Z,18.89
2022-09-25T18:06:14.176Z,18.90
2022-09-25T18:08:41.405Z,18.88
2022-09-25T18:11:09.796Z,18.91
2022-09-25T18:13:41.366Z,18.91
2022-09-25T18:16:16.517Z,18.87
2022-09-25T18:19:02.423Z,18.89
2022-09-25T18:21:47.308Z,18.90
2022-09-25T18:24:13.927Z,18.88
2022-09-25T18:26:41.784Z,18.83
2022-09-25T18:29:08.369Z,18.80
2022-09-25T18:31:34.908Z,18.76
2022-09-25T18:34:01.421Z,18.73
2022-09-25T18:36:27.925Z,18.71
2022-09-25T18:38:54.617Z,18.72
2022-09-25T18:41:21.081Z,18.74
2022-09-25T18:43:47.492Z,18.76
2022-09-25T18:46:14.057Z,18.79
2022-09-25T18:48:44.828Z,18.78
2022-09-25T18:51:12.388Z,18.78
2022-09-25T18:53:38.837Z,18.79
2022-09-25T18:56:05.317Z,18.78
2022-09-25T18:58:31.742Z,18.75
2022-09-25T19:00:58.257Z,18.72
2022-09-25T19:03:24.688Z,18.72
2022-09-25T19:05:57.851Z,18.67
2022-09-25T19:08:24.345Z,18.64
2022-09-25T19:10:50.770Z,18.60
2022-09-25T19:13:18.123Z,18.56
2022-09-25T19:15:44.733Z,18.54
2022-09-25T19:18:11.257Z,18.50
2022-09-25T19:20:37.734Z,18.45
2022-09-25T19:23:05.142Z,18.42
2022-09-25T19:25:31.570Z,18.40
2022-09-25T19:27:57.997Z,18.37
2022-09-25T19:30:24.719Z,18.33
2022-09-25T19:32:51.200Z,18.32
2022-09-25T19:35:17.613Z,18.31
2022-09-25T19:37:44.024Z,18.28
2022-09-25T19:40:29.430Z,18.24
2022-09-25T19:42:55.978Z,18.25
2022-09-25T19:45:22.688Z,18.24
2022-09-25T19:47:49.190Z,18.22
2022-09-25T19:50:15.732Z,18.21
2022-09-25T19:52:42.198Z,18.19
2022-09-25T19:55:08.761Z,18.19
2022-09-25T19:57:35.213Z,18.19
2022-09-25T20:00:01.733Z,18.17
2022-09-25T20:02:28.247Z,18.17
2022-09-25T20:04:54.810Z,18.13
2022-09-25T20:07:21.258Z,18.11
2022-09-25T20:09:47.814Z,18.10
2022-09-25T20:12:14.298Z,18.11
2022-09-25T20:14:43.324Z,18.08
2022-09-25T20:17:10.408Z,18.06
2022-09-25T20:19:37.797Z,18.06
2022-09-25T20:22:04.264Z,18.04
2022-09-25T20:24:30.753Z,18.02
2022-09-25T20:26:57.390Z,18.00
2022-09-25T20:29:23.921Z,17.98
2022-09-25T20:31:50.337Z,17.95
2022-09-25T20:34:18.237Z,17.92
2022-09-25T20:36:46.611Z,17.91
2022-09-25T20:39:19.779Z,17.87
2022-09-25T20:41:47.901Z,17.88
2022-09-25T20:44:14.379Z,17.88
2022-09-25T20:46:42.120Z,17.85
2022-09-25T20:49:10.143Z,17.84
2022-09-25T20:51:36.914Z,17.83
2022-09-25T20:54:07.167Z,17.83
2022-09-25T20:56:34.767Z,17.85
2022-09-25T20:59:01.644Z,17.85
2022-09-25T21:01:30.048Z,17.83
2022-09-25T21:03:58.772Z,17.83
2022-09-25T21:06:27.752Z,17.78
2022-09-25T21:08:55.508Z,17.78
2022-09-25T21:11:22.722Z,17.76
2022-09-25T21:13:52.929Z,17.75
2022-09-25T21:16:20.685Z,17.73
2022-09-25T21:18:51.415Z,17.72
2022-09-25T21:21:18.238Z,17.70
2022-09-25T21:23:48.079Z,17.69
2022-09-25T21:26:15.103Z,17.67
2022-09-25T21:28:43.217Z,17.66
2022-09-25T21:31:11.237Z,17.64
2022-09-25T21:33:37.756Z,17.62
2022-09-25T21:36:04.657Z,17.62
2022-09-25T21:38:31.221Z,17.60
2022-09-25T21:41:04.602Z,17.59
2022-09-25T21:43:32.011Z,17.59
2022-09-25T21:45:59.724Z,17.58
2022-09-25T21:48:26.720Z,17.58
2022-09-25T21:50:58.200Z,17.57
2022-09-25T21:53:25.306Z,17.57
2022-09-25T21:56:05.545Z,17.56
2022-09-25T21:58:32.926Z,17.54
2022-09-25T22:01:10.979Z,17.53
2022-09-25T22:03:38.811Z,17.51
2022-09-25T22:06:06.977Z,17.49
2022-09-25T22:08:37.380Z,17.47
2022-09-25T22:11:04.822Z,17.45
2022-09-25T22:13:32.832Z,17.43
2022-09-25T22:16:03.180Z,17.40
2022-09-25T22:18:29.696Z,17.41
2022-09-25T22:20:56.123Z,17.40
2022-09-25T22:23:23.901Z,17.38
2022-09-25T22:25:52.701Z,17.35
2022-09-25T22:28:19.530Z,17.33
2022-09-25T22:30:46.081Z,17.31
2022-09-25T22:33:12.742Z,17.31
2022-09-25T22:35:39.180Z,17.33
2022-09-25T22:38:05.720Z,17.35
2022-09-25T22:40:32.182Z,17.49
2022-09-25T22:43:02.114Z,17.59
2022-09-25T22:45:29.305Z,17.70
2022-09-25T22:47:57.574Z,17.83
2022-09-25T22:50:24.056Z,17.96
2022-09-25T22:52:51.773Z,18.07
2022-09-25T22:55:19.695Z,18.16
2022-09-25T22:57:46.143Z,18.21
2022-09-25T23:00:14.441Z,18.25
2022-09-25T23:02:40.876Z,18.29
2022-09-25T23:05:08.118Z,18.31
2022-09-25T23:07:34.593Z,18.32
2022-09-25T23:10:01.013Z,18.39
2022-09-25T23:12:30.608Z,18.41
2022-09-25T23:14:57.344Z,18.42
2022-09-25T23:17:23.877Z,18.44
2022-09-25T23:19:50.313Z,18.52
2022-09-25T23:22:16.798Z,18.54
2022-09-25T23:24:43.390Z,18.53
2022-09-25T23:27:09.917Z,18.51
2022-09-25T23:29:36.598Z,18.54
2022-09-25T23:32:04.730Z,18.52
2022-09-25T23:34:31.169Z,18.58
2022-09-25T23:36:57.678Z,18.62
2022-09-25T23:39:24.846Z,18.61
2022-09-25T23:41:51.301Z,18.63
2022-09-25T23:44:17.909Z,18.65
2022-09-25T23:46:44.841Z,18.65
2022-09-25T23:49:11.839Z,18.67
2022-09-25T23:51:38.759Z,18.67
2022-09-25T23:54:05.282Z,18.66
2022-09-25T23:56:33.466Z,18.62
2022-09-25T23:59:01.313Z,18.64
